createdAt,value
2022-08-17T00:00:43.570Z,1006.35
2022-08-17T00:01:27.479Z,1006.36
2022-08-17T00:02:26.830Z,1006.29
2022-08-17T00:03:25.754Z,1006.27
2022-08-17T00:04:25.705Z,1006.26
2022-08-17T00:05:25.696Z,1006.26
2022-08-17T00:06:25.691Z,1006.26
2022-08-17T00:07:25.682Z,1006.25
2022-08-17T00:08:25.649Z,1006.25
2022-08-17T00:09:25.653Z,1006.23
2022-08-17T00:10:25.621Z,1006.30
2022-08-17T00:11:25.611Z,1006.27
2022-08-17T00:12:43.513Z,1006.33
2022-08-17T00:13:26.585Z,1006.34
2022-08-17T00:14:25.575Z,1006.29
2022-08-17T00:15:25.574Z,1006.34
2022-08-17T00:16:50.414Z,1006.32
2022-08-17T00:17:26.563Z,1006.35
2022-08-17T00:19:02.139Z,1006.35
2022-08-17T00:19:26.504Z,1006.36
2022-08-17T00:20:30.440Z,1006.37
2022-08-17T00:21:26.488Z,1006.31
2022-08-17T00:22:33.752Z,1006.31
2022-08-17T00:23:26.453Z,1006.30
2022-08-17T00:24:25.439Z,1006.37
2022-08-17T00:25:25.423Z,1006.34
2022-08-17T00:26:43.415Z,1006.33
2022-08-17T00:27:26.409Z,1006.36
2022-08-17T00:28:25.413Z,1006.33
2022-08-17T00:29:25.381Z,1006.37
2022-08-17T00:30:25.347Z,1006.38
2022-08-17T00:31:25.339Z,1006.37
2022-08-17T00:33:11.614Z,1006.35
2022-08-17T00:33:26.750Z,1006.38
2022-08-17T00:34:25.412Z,1006.38
2022-08-17T00:35:25.293Z,1006.33
2022-08-17T00:36:25.261Z,1006.37
2022-08-17T00:37:25.261Z,1006.30
2022-08-17T00:38:25.253Z,1006.33
2022-08-17T00:39:25.295Z,1006.37
2022-08-17T00:40:25.212Z,1006.33
2022-08-17T00:41:25.215Z,1006.36
2022-08-17T00:42:28.932Z,1006.31
2022-08-17T00:43:26.181Z,1006.31
2022-08-17T00:44:25.174Z,1006.28
2022-08-17T00:45:26.163Z,1006.26
2022-08-17T00:46:25.145Z,1006.26
2022-08-17T00:47:25.140Z,1006.24
2022-08-17T00:48:29.517Z,1006.25
2022-08-17T00:49:26.108Z,1006.20
2022-08-17T00:50:25.074Z,1006.22
2022-08-17T00:51:25.106Z,1006.21
2022-08-17T00:52:25.059Z,1006.20
2022-08-17T00:53:25.036Z,1006.22
2022-08-17T00:54:25.030Z,1006.25
2022-08-17T00:55:25.029Z,1006.24
2022-08-17T00:56:24.997Z,1006.25
2022-08-17T00:57:25.031Z,1006.24
2022-08-17T00:58:35.848Z,1006.24
2022-08-17T00:59:25.958Z,1006.26
2022-08-17T01:00:24.951Z,1006.24
2022-08-17T01:01:24.952Z,1006.26
2022-08-17T01:02:24.955Z,1006.30
2022-08-17T01:03:24.913Z,1006.27
2022-08-17T01:04:24.879Z,1006.27
2022-08-17T01:05:25.384Z,1006.25
2022-08-17T01:06:24.851Z,1006.21
2022-08-17T01:07:24.849Z,1006.23
2022-08-17T01:08:24.844Z,1006.23
2022-08-17T01:09:24.837Z,1006.24
2022-08-17T01:10:59.082Z,1006.25
2022-08-17T01:11:25.795Z,1006.25
2022-08-17T01:12:24.787Z,1006.22
2022-08-17T01:13:24.764Z,1006.18
2022-08-17T01:14:24.766Z,1006.20
2022-08-17T01:15:24.748Z,1006.20
2022-08-17T01:16:24.724Z,1006.24
2022-08-17T01:17:24.726Z,1006.30
2022-08-17T01:18:24.795Z,1006.29
2022-08-17T01:19:24.686Z,1006.27
2022-08-17T01:20:24.680Z,1006.25
2022-08-17T01:21:24.658Z,1006.26
2022-08-17T01:22:24.650Z,1006.26
2022-08-17T01:23:24.648Z,1006.24
2022-08-17T01:24:24.738Z,1006.25
2022-08-17T01:25:24.599Z,1006.25
2022-08-17T01:26:24.602Z,1006.20
2022-08-17T01:27:24.590Z,1006.24
2022-08-17T01:28:40.701Z,1006.23
2022-08-17T01:29:25.584Z,1006.17
2022-08-17T01:30:58.722Z,1006.22
2022-08-17T01:31:25.552Z,1006.21
2022-08-17T01:32:24.513Z,1006.16
2022-08-17T01:33:24.491Z,1006.24
2022-08-17T01:34:24.485Z,1006.22
2022-08-17T01:35:26.573Z,1006.20
2022-08-17T01:36:24.443Z,1006.20
2022-08-17T01:37:24.456Z,1006.21
2022-08-17T01:38:27.170Z,1006.22
2022-08-17T01:39:24.475Z,1006.19
2022-08-17T01:40:24.418Z,1006.24
2022-08-17T01:41:24.399Z,1006.25
2022-08-17T01:42:24.374Z,1006.23
2022-08-17T01:43:24.353Z,1006.21
2022-08-17T01:44:24.350Z,1006.19
2022-08-17T01:45:24.324Z,1006.22
2022-08-17T01:46:24.331Z,1006.25
2022-08-17T01:47:24.309Z,1006.25
2022-08-17T01:48:24.277Z,1006.27
2022-08-17T01:49:24.289Z,1006.26
2022-08-17T01:50:24.248Z,1006.30
2022-08-17T01:51:24.246Z,1006.29
2022-08-17T01:52:24.240Z,1006.31
2022-08-17T01:53:24.216Z,1006.28
2022-08-17T01:54:24.211Z,1006.27
2022-08-17T01:55:27.336Z,1006.27
2022-08-17T01:56:24.181Z,1006.25
2022-08-17T01:57:24.180Z,1006.25
2022-08-17T01:58:24.143Z,1006.26
2022-08-17T01:59:24.131Z,1006.23
2022-08-17T02:00:24.155Z,1006.24
2022-08-17T02:01:24.292Z,1006.23
2022-08-17T02:02:30.321Z,1006.25
2022-08-17T02:03:25.096Z,1006.25
2022-08-17T02:04:24.061Z,1006.27
2022-08-17T02:05:24.067Z,1006.26
2022-08-17T02:06:27.308Z,1006.26
2022-08-17T02:07:26.116Z,1006.25
2022-08-17T02:08:39.232Z,1006.28
2022-08-17T02:09:25.623Z,1006.24
2022-08-17T02:10:24.028Z,1006.27
2022-08-17T02:11:25.027Z,1006.29
2022-08-17T02:12:47.939Z,1006.30
2022-08-17T02:13:24.999Z,1006.30
2022-08-17T02:14:23.939Z,1006.30
2022-08-17T02:15:23.929Z,1006.26
2022-08-17T02:16:23.896Z,1006.24
2022-08-17T02:17:23.908Z,1006.29
2022-08-17T02:18:23.870Z,1006.27
2022-08-17T02:19:23.867Z,1006.24
2022-08-17T02:20:41.863Z,1006.24
2022-08-17T02:21:24.838Z,1006.25
2022-08-17T02:22:23.832Z,1006.23
2022-08-17T02:23:23.821Z,1006.21
2022-08-17T02:24:59.674Z,1006.25
2022-08-17T02:25:24.795Z,1006.28
2022-08-17T02:26:24.101Z,1006.26
2022-08-17T02:27:23.750Z,1006.23
2022-08-17T02:28:23.774Z,1006.27
2022-08-17T02:29:23.743Z,1006.25
2022-08-17T02:31:00.858Z,1006.22
2022-08-17T02:31:24.702Z,1006.22
2022-08-17T02:32:27.349Z,1006.17
2022-08-17T02:33:23.672Z,1006.21
2022-08-17T02:34:24.668Z,1006.19
2022-08-17T02:35:23.665Z,1006.20
2022-08-17T02:36:27.336Z,1006.20
2022-08-17T02:37:23.637Z,1006.19
2022-08-17T02:38:23.603Z,1006.20
2022-08-17T02:39:23.597Z,1006.19
2022-08-17T02:40:35.679Z,1006.17
2022-08-17T02:41:24.606Z,1006.17
2022-08-17T02:42:23.560Z,1006.18
2022-08-17T02:43:23.550Z,1006.16
2022-08-17T02:44:39.294Z,1006.13
2022-08-17T02:45:24.509Z,1006.14
2022-08-17T02:46:23.510Z,1006.12
2022-08-17T02:47:23.522Z,1006.16
2022-08-17T02:48:30.955Z,1006.14
2022-08-17T02:49:24.472Z,1006.16
2022-08-17T02:50:23.442Z,1006.11
2022-08-17T02:51:23.429Z,1006.10
2022-08-17T02:52:42.505Z,1006.13
2022-08-17T02:53:24.441Z,1006.09
2022-08-17T02:54:40.538Z,1006.12
2022-08-17T02:55:24.394Z,1006.15
2022-08-17T02:56:23.361Z,1006.09
2022-08-17T02:57:23.364Z,1006.12
2022-08-17T02:58:35.156Z,1006.13
2022-08-17T02:59:24.331Z,1006.12
2022-08-17T03:00:23.315Z,1006.14
2022-08-17T03:01:23.369Z,1006.12
2022-08-17T03:02:23.297Z,1006.11
2022-08-17T03:03:23.288Z,1006.07
2022-08-17T03:04:23.254Z,1006.07
2022-08-17T03:05:23.258Z,1006.17
2022-08-17T03:06:23.225Z,1006.11
2022-08-17T03:07:23.215Z,1006.12
2022-08-17T03:08:23.242Z,1006.12
2022-08-17T03:09:23.217Z,1006.12
2022-08-17T03:10:23.198Z,1006.19
2022-08-17T03:11:23.203Z,1006.17
2022-08-17T03:12:23.147Z,1006.19
2022-08-17T03:13:23.156Z,1006.21
2022-08-17T03:14:26.191Z,1006.21
2022-08-17T03:15:23.141Z,1006.18
2022-08-17T03:16:23.106Z,1006.22
2022-08-17T03:17:23.105Z,1006.19
2022-08-17T03:18:25.482Z,1006.20
2022-08-17T03:19:23.056Z,1006.21
2022-08-17T03:20:23.052Z,1006.24
2022-08-17T03:21:23.029Z,1006.20
2022-08-17T03:22:36.085Z,1006.24
2022-08-17T03:23:25.245Z,1006.21
2022-08-17T03:24:26.814Z,1006.21
2022-08-17T03:25:23.985Z,1006.24
2022-08-17T03:26:23.083Z,1006.23
2022-08-17T03:27:22.944Z,1006.22
2022-08-17T03:28:22.935Z,1006.21
2022-08-17T03:29:22.922Z,1006.28
2022-08-17T03:30:22.916Z,1006.17
2022-08-17T03:31:22.906Z,1006.27
2022-08-17T03:32:22.983Z,1006.16
2022-08-17T03:33:22.865Z,1006.21
2022-08-17T03:34:22.857Z,1006.16
2022-08-17T03:35:22.852Z,1006.16
2022-08-17T03:36:22.814Z,1006.18
2022-08-17T03:37:22.818Z,1006.19
2022-08-17T03:38:23.276Z,1006.20
2022-08-17T03:39:22.776Z,1006.20
2022-08-17T03:40:39.886Z,1006.17
2022-08-17T03:41:23.756Z,1006.13
2022-08-17T03:42:31.485Z,1006.17
2022-08-17T03:43:23.773Z,1006.15
2022-08-17T03:44:22.707Z,1006.12
2022-08-17T03:45:22.712Z,1006.10
2022-08-17T03:46:28.310Z,1006.13
2022-08-17T03:47:23.669Z,1006.11
2022-08-17T03:48:22.671Z,1006.11
2022-08-17T03:49:22.803Z,1006.10
2022-08-17T03:50:22.630Z,1006.13
2022-08-17T03:51:22.621Z,1006.15
2022-08-17T03:52:22.614Z,1006.18
2022-08-17T03:53:22.595Z,1006.14
2022-08-17T03:54:22.593Z,1006.17
2022-08-17T03:55:22.585Z,1006.17
2022-08-17T03:56:23.541Z,1006.18
2022-08-17T03:57:22.563Z,1006.19
2022-08-17T03:58:22.514Z,1006.19
2022-08-17T03:59:22.679Z,1006.20
2022-08-17T04:00:22.527Z,1006.19
2022-08-17T04:01:22.512Z,1006.19
2022-08-17T04:02:22.484Z,1006.21
2022-08-17T04:03:22.468Z,1006.23
2022-08-17T04:04:28.014Z,1006.26
2022-08-17T04:05:23.454Z,1006.22
2022-08-17T04:06:22.428Z,1006.20
2022-08-17T04:07:22.415Z,1006.23
2022-08-17T04:08:22.386Z,1006.22
2022-08-17T04:09:22.380Z,1006.21
2022-08-17T04:10:26.297Z,1006.18
2022-08-17T04:11:22.367Z,1006.16
2022-08-17T04:12:22.350Z,1006.14
2022-08-17T04:13:24.750Z,1006.13
2022-08-17T04:14:22.320Z,1006.12
2022-08-17T04:15:22.293Z,1006.13
2022-08-17T04:16:22.278Z,1006.17
2022-08-17T04:17:22.313Z,1006.17
2022-08-17T04:18:22.249Z,1006.16
2022-08-17T04:19:22.230Z,1006.17
2022-08-17T04:20:22.235Z,1006.20
2022-08-17T04:21:22.218Z,1006.23
2022-08-17T04:22:33.343Z,1006.21
2022-08-17T04:23:23.180Z,1006.22
2022-08-17T04:24:22.187Z,1006.23
2022-08-17T04:25:22.154Z,1006.20
2022-08-17T04:26:52.464Z,1006.22
2022-08-17T04:27:23.137Z,1006.19
2022-08-17T04:28:22.114Z,1006.18
2022-08-17T04:29:22.112Z,1006.20
2022-08-17T04:30:22.085Z,1006.16
2022-08-17T04:31:22.064Z,1006.17
2022-08-17T04:32:58.541Z,1006.15
2022-08-17T04:33:23.145Z,1006.15
2022-08-17T04:34:22.058Z,1006.16
2022-08-17T04:35:22.031Z,1006.20
2022-08-17T04:36:22.006Z,1006.21
2022-08-17T04:37:21.994Z,1006.22
2022-08-17T04:38:22.001Z,1006.25
2022-08-17T04:39:22.001Z,1006.33
2022-08-17T04:40:21.948Z,1006.26
2022-08-17T04:41:21.951Z,1006.31
2022-08-17T04:42:21.928Z,1006.30
2022-08-17T04:43:21.908Z,1006.32
2022-08-17T04:44:37.117Z,1006.33
2022-08-17T04:45:22.908Z,1006.32
2022-08-17T04:46:21.885Z,1006.33
2022-08-17T04:47:21.863Z,1006.36
2022-08-17T04:48:21.843Z,1006.35
2022-08-17T04:49:21.835Z,1006.37
2022-08-17T04:50:21.818Z,1006.36
2022-08-17T04:51:21.807Z,1006.35
2022-08-17T04:52:29.667Z,1006.35
2022-08-17T04:53:22.785Z,1006.32
2022-08-17T04:54:21.762Z,1006.34
2022-08-17T04:55:21.742Z,1006.38
2022-08-17T04:56:21.856Z,1006.36
2022-08-17T04:57:21.714Z,1006.45
2022-08-17T04:58:21.726Z,1006.44
2022-08-17T04:59:21.705Z,1006.43
2022-08-17T05:00:21.705Z,1006.41
2022-08-17T05:01:23.135Z,1006.39
2022-08-17T05:02:21.765Z,1006.40
2022-08-17T05:03:21.635Z,1006.36
2022-08-17T05:04:34.089Z,1006.36
2022-08-17T05:05:22.615Z,1006.40
2022-08-17T05:06:21.611Z,1006.39
2022-08-17T05:07:24.602Z,1006.34
2022-08-17T05:08:21.691Z,1006.34
2022-08-17T05:09:21.569Z,1006.38
2022-08-17T05:10:21.547Z,1006.38
2022-08-17T05:11:21.528Z,1006.40
2022-08-17T05:12:21.532Z,1006.41
2022-08-17T05:13:21.501Z,1006.46
2022-08-17T05:14:21.513Z,1006.44
2022-08-17T05:15:22.495Z,1006.43
2022-08-17T05:16:21.473Z,1006.44
2022-08-17T05:17:21.463Z,1006.40
2022-08-17T05:18:21.441Z,1006.44
2022-08-17T05:19:21.452Z,1006.46
2022-08-17T05:20:21.425Z,1006.46
2022-08-17T05:21:21.393Z,1006.48
2022-08-17T05:22:21.395Z,1006.44
2022-08-17T05:23:21.386Z,1006.50
2022-08-17T05:24:40.696Z,1006.52
2022-08-17T05:25:25.694Z,1006.42
2022-08-17T05:26:26.256Z,1006.44
2022-08-17T05:27:22.327Z,1006.45
2022-08-17T05:28:26.556Z,1006.51
2022-08-17T05:29:22.300Z,1006.48
2022-08-17T05:30:22.277Z,1006.51
2022-08-17T05:31:21.264Z,1006.47
2022-08-17T05:32:39.625Z,1006.51
2022-08-17T05:33:22.235Z,1006.53
2022-08-17T05:34:21.241Z,1006.51
2022-08-17T05:35:21.220Z,1006.54
2022-08-17T05:36:43.580Z,1006.57
2022-08-17T05:37:22.191Z,1006.62
2022-08-17T05:38:21.168Z,1006.62
2022-08-17T05:39:21.148Z,1006.61
2022-08-17T05:40:21.161Z,1006.63
2022-08-17T05:41:21.243Z,1006.64
2022-08-17T05:42:21.117Z,1006.65
2022-08-17T05:43:21.099Z,1006.58
2022-08-17T05:44:21.104Z,1006.60
2022-08-17T05:45:32.127Z,1006.58
2022-08-17T05:46:22.095Z,1006.62
2022-08-17T05:47:21.065Z,1006.58
2022-08-17T05:48:21.031Z,1006.55
2022-08-17T05:49:22.027Z,1006.54
2022-08-17T05:50:24.406Z,1006.56
2022-08-17T05:51:21.982Z,1006.58
2022-08-17T05:52:21.014Z,1006.60
2022-08-17T05:53:20.957Z,1006.61
2022-08-17T05:54:20.967Z,1006.62
2022-08-17T05:55:20.948Z,1006.59
2022-08-17T05:56:30.250Z,1006.64
2022-08-17T05:57:21.906Z,1006.65
2022-08-17T05:58:20.909Z,1006.67
2022-08-17T05:59:20.889Z,1006.68
2022-08-17T06:00:20.866Z,1006.62
2022-08-17T06:01:21.925Z,1006.68
2022-08-17T06:02:20.866Z,1006.63
2022-08-17T06:03:20.823Z,1006.66
2022-08-17T06:04:20.830Z,1006.65
2022-08-17T06:05:20.798Z,1006.63
2022-08-17T06:06:20.802Z,1006.66
2022-08-17T06:07:20.792Z,1006.67
2022-08-17T06:08:20.868Z,1006.68
2022-08-17T06:09:26.665Z,1006.68
2022-08-17T06:10:21.740Z,1006.72
2022-08-17T06:11:20.721Z,1006.71
2022-08-17T06:12:20.723Z,1006.70
2022-08-17T06:13:20.681Z,1006.66
2022-08-17T06:14:20.803Z,1006.68
2022-08-17T06:15:20.679Z,1006.66
2022-08-17T06:16:32.842Z,1006.67
2022-08-17T06:17:21.645Z,1006.65
2022-08-17T06:18:20.622Z,1006.60
2022-08-17T06:19:20.604Z,1006.63
2022-08-17T06:20:20.617Z,1006.64
2022-08-17T06:21:20.584Z,1006.63
2022-08-17T06:22:21.578Z,1006.63
2022-08-17T06:23:20.570Z,1006.64
2022-08-17T06:24:20.546Z,1006.63
2022-08-17T06:25:20.548Z,1006.61
2022-08-17T06:26:20.525Z,1006.59
2022-08-17T06:27:20.519Z,1006.63
2022-08-17T06:28:20.502Z,1006.66
2022-08-17T06:29:20.488Z,1006.66
2022-08-17T06:30:20.487Z,1006.66
2022-08-17T06:31:20.447Z,1006.65
2022-08-17T06:32:20.453Z,1006.62
2022-08-17T06:33:20.423Z,1006.61
2022-08-17T06:34:20.430Z,1006.60
2022-08-17T06:35:20.404Z,1006.59
2022-08-17T06:36:20.389Z,1006.62
2022-08-17T06:37:20.385Z,1006.59
2022-08-17T06:38:38.470Z,1006.62
2022-08-17T06:39:21.341Z,1006.59
2022-08-17T06:40:20.354Z,1006.59
2022-08-17T06:41:20.343Z,1006.62
2022-08-17T06:43:02.111Z,1006.58
2022-08-17T06:43:21.296Z,1006.54
2022-08-17T06:44:50.310Z,1006.57
2022-08-17T06:45:21.262Z,1006.56
2022-08-17T06:46:20.268Z,1006.56
2022-08-17T06:47:28.479Z,1006.58
2022-08-17T06:48:21.225Z,1006.59
2022-08-17T06:49:20.218Z,1006.58
2022-08-17T06:50:20.196Z,1006.49
2022-08-17T06:51:20.175Z,1006.51
2022-08-17T06:52:45.738Z,1006.51
2022-08-17T06:53:21.187Z,1006.49
2022-08-17T06:54:20.155Z,1006.49
2022-08-17T06:55:20.135Z,1006.44
2022-08-17T06:56:20.108Z,1006.42
2022-08-17T06:57:20.128Z,1006.42
2022-08-17T06:58:20.079Z,1006.41
2022-08-17T06:59:20.069Z,1006.44
2022-08-17T07:00:20.073Z,1006.43
2022-08-17T07:01:20.130Z,1006.42
2022-08-17T07:02:20.028Z,1006.43
2022-08-17T07:03:21.019Z,1006.42
2022-08-17T07:04:20.074Z,1006.45
2022-08-17T07:05:19.981Z,1006.43
2022-08-17T07:06:19.987Z,1006.44
2022-08-17T07:07:19.977Z,1006.42
2022-08-17T07:08:19.942Z,1006.36
2022-08-17T07:09:20.057Z,1006.40
2022-08-17T07:10:19.922Z,1006.41
2022-08-17T07:11:19.903Z,1006.45
2022-08-17T07:12:19.908Z,1006.44
2022-08-17T07:13:19.874Z,1006.47
2022-08-17T07:14:19.890Z,1006.47
2022-08-17T07:15:19.867Z,1006.48
2022-08-17T07:16:19.836Z,1006.40
2022-08-17T07:17:19.839Z,1006.38
2022-08-17T07:18:19.816Z,1006.37
2022-08-17T07:19:19.798Z,1006.40
2022-08-17T07:20:19.911Z,1006.38
2022-08-17T07:21:22.963Z,1006.42
2022-08-17T07:22:20.776Z,1006.39
2022-08-17T07:23:19.754Z,1006.41
2022-08-17T07:24:28.123Z,1006.44
2022-08-17T07:25:21.021Z,1006.43
2022-08-17T07:26:19.710Z,1006.45
2022-08-17T07:27:19.699Z,1006.50
2022-08-17T07:28:19.702Z,1006.46
2022-08-17T07:29:19.661Z,1006.48
2022-08-17T07:30:19.664Z,1006.51
2022-08-17T07:31:19.664Z,1006.47
2022-08-17T07:32:19.622Z,1006.45
2022-08-17T07:33:19.604Z,1006.44
2022-08-17T07:34:19.615Z,1006.48
2022-08-17T07:35:19.999Z,1006.55
2022-08-17T07:36:19.574Z,1006.53
2022-08-17T07:37:19.583Z,1006.54
2022-08-17T07:38:25.330Z,1006.55
2022-08-17T07:39:20.526Z,1006.54
2022-08-17T07:40:19.583Z,1006.53
2022-08-17T07:41:19.497Z,1006.48
2022-08-17T07:42:19.500Z,1006.47
2022-08-17T07:43:23.266Z,1006.48
2022-08-17T07:44:19.466Z,1006.51
2022-08-17T07:45:19.461Z,1006.48
2022-08-17T07:46:19.468Z,1006.54
2022-08-17T07:47:19.418Z,1006.53
2022-08-17T07:48:19.422Z,1006.51
2022-08-17T07:49:19.405Z,1006.56
2022-08-17T07:50:23.930Z,1006.52
2022-08-17T07:51:20.391Z,1006.55
2022-08-17T07:52:48.339Z,1006.55
2022-08-17T07:53:20.332Z,1006.56
2022-08-17T07:54:19.346Z,1006.57
2022-08-17T07:55:19.326Z,1006.55
2022-08-17T07:56:19.302Z,1006.53
2022-08-17T07:57:19.307Z,1006.52
2022-08-17T07:58:19.282Z,1006.52
2022-08-17T07:59:23.386Z,1006.55
2022-08-17T08:00:19.266Z,1006.54
2022-08-17T08:01:20.276Z,1006.51
2022-08-17T08:02:19.297Z,1006.55
2022-08-17T08:03:19.218Z,1006.56
2022-08-17T08:04:21.346Z,1006.55
2022-08-17T08:05:31.739Z,1006.62
2022-08-17T08:06:20.185Z,1006.58
2022-08-17T08:07:19.201Z,1006.64
2022-08-17T08:08:19.138Z,1006.64
2022-08-17T08:09:19.135Z,1006.63
2022-08-17T08:10:19.117Z,1006.56
2022-08-17T08:11:19.122Z,1006.59
2022-08-17T08:12:19.102Z,1006.58
2022-08-17T08:13:19.098Z,1006.56
2022-08-17T08:14:19.074Z,1006.60
2022-08-17T08:15:19.154Z,1006.60
2022-08-17T08:16:19.031Z,1006.56
2022-08-17T08:17:19.038Z,1006.60
2022-08-17T08:18:19.012Z,1006.63
2022-08-17T08:19:21.191Z,1006.60
2022-08-17T08:20:47.650Z,1006.60
2022-08-17T08:21:19.972Z,1006.63
2022-08-17T08:22:18.967Z,1006.61
2022-08-17T08:23:18.958Z,1006.59
2022-08-17T08:24:18.956Z,1006.61
2022-08-17T08:25:18.937Z,1006.61
2022-08-17T08:26:19.008Z,1006.64
2022-08-17T08:27:18.902Z,1006.64
2022-08-17T08:28:18.889Z,1006.70
2022-08-17T08:29:18.857Z,1006.66
2022-08-17T08:30:18.872Z,1006.67
2022-08-17T08:31:18.842Z,1006.64
2022-08-17T08:32:18.818Z,1006.62
2022-08-17T08:33:18.823Z,1006.62
2022-08-17T08:34:55.877Z,1006.64
2022-08-17T08:35:19.817Z,1006.64
2022-08-17T08:37:12.682Z,1006.70
2022-08-17T08:37:30.380Z,1006.69
2022-08-17T08:38:19.732Z,1006.69
2022-08-17T08:39:18.721Z,1006.74
2022-08-17T08:40:18.724Z,1006.69
2022-08-17T08:41:18.700Z,1006.70
2022-08-17T08:42:18.712Z,1006.68
2022-08-17T08:43:18.863Z,1006.62
2022-08-17T08:44:18.653Z,1006.61
2022-08-17T08:45:18.658Z,1006.60
2022-08-17T08:46:19.789Z,1006.63
2022-08-17T08:47:18.635Z,1006.64
2022-08-17T08:48:52.750Z,1006.57
2022-08-17T08:49:19.588Z,1006.62
2022-08-17T08:50:37.120Z,1006.62
2022-08-17T08:51:19.603Z,1006.60
2022-08-17T08:52:18.537Z,1006.61
2022-08-17T08:53:18.528Z,1006.63
2022-08-17T08:54:26.735Z,1006.59
2022-08-17T08:55:19.522Z,1006.59
2022-08-17T08:56:18.489Z,1006.59
2022-08-17T08:57:32.797Z,1006.61
2022-08-17T08:58:31.802Z,1006.58
2022-08-17T08:59:19.465Z,1006.53
2022-08-17T09:00:18.526Z,1006.57
2022-08-17T09:01:18.468Z,1006.53
2022-08-17T09:02:18.425Z,1006.55
2022-08-17T09:03:18.425Z,1006.56
2022-08-17T09:04:24.822Z,1006.55
2022-08-17T09:05:19.394Z,1006.59
2022-08-17T09:06:37.644Z,1006.56
2022-08-17T09:07:19.355Z,1006.56
2022-08-17T09:08:18.361Z,1006.56
2022-08-17T09:09:18.338Z,1006.56
2022-08-17T09:10:18.337Z,1006.54
2022-08-17T09:11:18.303Z,1006.52
2022-08-17T09:12:18.290Z,1006.54
2022-08-17T09:13:18.307Z,1006.49
2022-08-17T09:14:21.863Z,1006.51
2022-08-17T09:15:19.261Z,1006.46
2022-08-17T09:16:18.228Z,1006.46
2022-08-17T09:17:18.421Z,1006.46
2022-08-17T09:19:00.556Z,1006.46
2022-08-17T09:19:19.206Z,1006.45
2022-08-17T09:20:27.988Z,1006.48
2022-08-17T09:21:19.171Z,1006.44
2022-08-17T09:22:18.166Z,1006.44
2022-08-17T09:23:18.155Z,1006.48
2022-08-17T09:24:20.701Z,1006.44
2022-08-17T09:25:18.126Z,1006.49
2022-08-17T09:26:18.102Z,1006.42
2022-08-17T09:27:18.104Z,1006.45
2022-08-17T09:28:18.087Z,1006.45
2022-08-17T09:29:18.067Z,1006.46
2022-08-17T09:30:18.097Z,1006.46
2022-08-17T09:31:18.058Z,1006.47
2022-08-17T09:32:18.094Z,1006.43
2022-08-17T09:33:18.030Z,1006.47
2022-08-17T09:34:17.998Z,1006.49
2022-08-17T09:35:17.998Z,1006.48
2022-08-17T09:36:17.982Z,1006.48
2022-08-17T09:37:17.969Z,1006.52
2022-08-17T09:38:17.961Z,1006.50
2022-08-17T09:39:17.952Z,1006.48
2022-08-17T09:40:18.002Z,1006.47
2022-08-17T09:41:17.911Z,1006.46
2022-08-17T09:42:17.970Z,1006.42
2022-08-17T09:43:17.895Z,1006.42
2022-08-17T09:44:23.005Z,1006.43
2022-08-17T09:45:18.876Z,1006.40
2022-08-17T09:46:17.871Z,1006.42
2022-08-17T09:47:17.842Z,1006.37
2022-08-17T09:48:18.188Z,1006.36
2022-08-17T09:49:21.850Z,1006.40
2022-08-17T09:50:18.806Z,1006.36
2022-08-17T09:51:18.818Z,1006.39
2022-08-17T09:52:17.924Z,1006.34
2022-08-17T09:53:17.775Z,1006.35
2022-08-17T09:54:37.961Z,1006.35
2022-08-17T09:55:18.723Z,1006.36
2022-08-17T09:56:17.722Z,1006.37
2022-08-17T09:57:29.818Z,1006.35
2022-08-17T09:58:18.680Z,1006.37
2022-08-17T09:59:17.676Z,1006.33
2022-08-17T10:00:17.676Z,1006.33
2022-08-17T10:01:17.719Z,1006.32
2022-08-17T10:02:17.710Z,1006.27
2022-08-17T10:03:17.640Z,1006.26
2022-08-17T10:04:20.119Z,1006.23
2022-08-17T10:05:17.605Z,1006.23
2022-08-17T10:06:22.042Z,1006.26
2022-08-17T10:07:17.563Z,1006.25
2022-08-17T10:08:17.566Z,1006.27
2022-08-17T10:09:17.542Z,1006.21
2022-08-17T10:10:17.674Z,1006.21
2022-08-17T10:11:17.537Z,1006.23
2022-08-17T10:12:17.823Z,1006.30
2022-08-17T10:13:18.298Z,1006.27
2022-08-17T10:14:36.702Z,1006.30
2022-08-17T10:15:18.479Z,1006.29
2022-08-17T10:16:17.448Z,1006.30
2022-08-17T10:17:17.462Z,1006.32
2022-08-17T10:18:17.417Z,1006.31
2022-08-17T10:19:17.438Z,1006.35
2022-08-17T10:20:17.404Z,1006.32
2022-08-17T10:21:17.378Z,1006.32
2022-08-17T10:22:34.570Z,1006.28
2022-08-17T10:23:18.373Z,1006.30
2022-08-17T10:24:17.339Z,1006.32
2022-08-17T10:25:22.912Z,1006.34
2022-08-17T10:26:18.311Z,1006.32
2022-08-17T10:27:17.302Z,1006.34
2022-08-17T10:28:19.908Z,1006.35
2022-08-17T10:29:17.288Z,1006.33
2022-08-17T10:30:17.276Z,1006.30
2022-08-17T10:31:34.147Z,1006.27
2022-08-17T10:32:18.233Z,1006.28
2022-08-17T10:33:17.257Z,1006.28
2022-08-17T10:34:17.205Z,1006.25
2022-08-17T10:35:17.207Z,1006.20
2022-08-17T10:36:17.199Z,1006.26
2022-08-17T10:37:17.175Z,1006.26
2022-08-17T10:38:17.171Z,1006.24
2022-08-17T10:39:17.160Z,1006.27
2022-08-17T10:40:17.214Z,1006.26
2022-08-17T10:41:17.253Z,1006.20
2022-08-17T10:42:30.136Z,1006.24
2022-08-17T10:43:18.099Z,1006.22
2022-08-17T10:44:37.031Z,1006.20
2022-08-17T10:45:18.083Z,1006.21
2022-08-17T10:46:30.441Z,1006.17
2022-08-17T10:47:18.061Z,1006.18
2022-08-17T10:48:17.043Z,1006.15
2022-08-17T10:49:17.061Z,1006.23
2022-08-17T10:50:17.018Z,1006.26
2022-08-17T10:51:17.006Z,1006.23
2022-08-17T10:52:17.113Z,1006.24
2022-08-17T10:53:19.930Z,1006.20
2022-08-17T10:54:16.953Z,1006.23
2022-08-17T10:55:16.945Z,1006.23
2022-08-17T10:56:16.938Z,1006.21
2022-08-17T10:57:16.914Z,1006.23
2022-08-17T10:58:16.909Z,1006.26
2022-08-17T10:59:16.910Z,1006.21
2022-08-17T11:00:16.866Z,1006.23
2022-08-17T11:01:16.900Z,1006.17
2022-08-17T11:02:16.861Z,1006.22
2022-08-17T11:03:16.851Z,1006.18
2022-08-17T11:04:16.838Z,1006.20
2022-08-17T11:05:16.824Z,1006.19
2022-08-17T11:06:16.796Z,1006.15
2022-08-17T11:07:16.781Z,1006.16
2022-08-17T11:08:17.375Z,1006.18
2022-08-17T11:09:16.763Z,1006.08
2022-08-17T11:10:16.754Z,1006.08
2022-08-17T11:11:16.744Z,1006.03
2022-08-17T11:12:16.711Z,1006.09
2022-08-17T11:13:16.725Z,1006.08
2022-08-17T11:14:16.722Z,1006.09
2022-08-17T11:15:16.683Z,1006.04
2022-08-17T11:16:16.687Z,1006.05
2022-08-17T11:17:16.667Z,1006.04
2022-08-17T11:18:16.636Z,1006.03
2022-08-17T11:19:16.625Z,1006.03
2022-08-17T11:20:16.629Z,1006.04
2022-08-17T11:21:16.604Z,1006.04
2022-08-17T11:22:16.607Z,1006.02
2022-08-17T11:23:16.590Z,1006.04
2022-08-17T11:24:16.576Z,1006.00
2022-08-17T11:25:16.696Z,1006.05
2022-08-17T11:26:16.530Z,1005.96
2022-08-17T11:27:16.536Z,1005.98
2022-08-17T11:28:18.057Z,1005.98
2022-08-17T11:29:16.499Z,1005.99
2022-08-17T11:30:16.501Z,1005.99
2022-08-17T11:31:16.494Z,1006.00
2022-08-17T11:32:16.462Z,1005.95
2022-08-17T11:33:16.473Z,1005.92
2022-08-17T11:34:16.432Z,1005.90
2022-08-17T11:35:16.422Z,1005.89
2022-08-17T11:36:16.537Z,1005.96
2022-08-17T11:37:16.394Z,1005.89
2022-08-17T11:38:16.846Z,1005.85
2022-08-17T11:39:16.388Z,1005.82
2022-08-17T11:40:16.418Z,1005.86
2022-08-17T11:41:16.361Z,1005.87
2022-08-17T11:42:16.345Z,1005.88
2022-08-17T11:43:16.326Z,1005.84
2022-08-17T11:44:16.321Z,1005.85
2022-08-17T11:45:31.618Z,1005.87
2022-08-17T11:46:17.292Z,1005.88
2022-08-17T11:47:16.310Z,1005.81
2022-08-17T11:48:27.970Z,1005.82
2022-08-17T11:49:17.239Z,1005.79
2022-08-17T11:50:16.241Z,1005.76
2022-08-17T11:51:16.232Z,1005.74
2022-08-17T11:52:16.202Z,1005.75
2022-08-17T11:53:16.315Z,1005.77
2022-08-17T11:54:32.327Z,1005.74
2022-08-17T11:55:34.439Z,1005.78
2022-08-17T11:56:17.167Z,1005.78
2022-08-17T11:57:16.143Z,1005.72
2022-08-17T11:58:16.138Z,1005.72
2022-08-17T11:59:16.134Z,1005.74
2022-08-17T12:00:16.095Z,1005.73
2022-08-17T12:01:16.294Z,1005.76
2022-08-17T12:02:16.076Z,1005.74
2022-08-17T12:03:16.132Z,1005.73
2022-08-17T12:04:16.112Z,1005.69
2022-08-17T12:05:16.051Z,1005.77